createdAt,value
2022-09-28T00:02:20.402Z,98043.95
2022-09-28T00:05:09.339Z,98047.59
2022-09-28T00:07:57.476Z,98039.98
2022-09-28T00:10:46.527Z,98042.20
2022-09-28T00:13:35.372Z,98039.13
2022-09-28T00:16:27.601Z,98044.65
2022-09-28T00:19:16.379Z,98037.73
2022-09-28T00:22:04.733Z,98041.93
2022-09-28T00:24:53.396Z,98041.60
2022-09-28T00:27:41.617Z,98035.20
2022-09-28T00:30:29.520Z,98027.77
2022-09-28T00:33:18.235Z,98028.31
2022-09-28T00:36:07.682Z,98025.94
2022-09-28T00:38:58.229Z,98021.87
2022-09-28T00:41:47.254Z,98023.44
2022-09-28T00:44:56.212Z,98024.27
2022-09-28T00:47:52.433Z,98018.20
2022-09-28T00:50:41.412Z,98012.75
2022-09-28T00:53:36.712Z,98022.35
2022-09-28T00:56:30.385Z,98012.55
2022-09-28T00:59:18.978Z,98017.46
2022-09-28T01:02:07.774Z,98014.34
2022-09-28T01:05:08.025Z,98007.09
2022-09-28T01:07:59.022Z,98005.47
2022-09-28T01:10:49.010Z,98004.41
2022-09-28T01:13:40.627Z,98007.66
2022-09-28T01:17:25.880Z,98006.90
2022-09-28T01:20:44.895Z,98003.87
2022-09-28T01:24:14.077Z,98005.00
2022-09-28T01:27:32.023Z,98003.28
2022-09-28T01:30:22.587Z,98000.02
2022-09-28T01:33:21.028Z,97996.17
2022-09-28T01:36:50.897Z,97999.59
2022-09-28T01:39:45.408Z,97997.57
2022-09-28T01:42:37.675Z,97991.45
2022-09-28T01:45:35.037Z,97993.15
2022-09-28T01:48:36.256Z,97990.48
2022-09-28T01:52:09.327Z,97993.48
2022-09-28T01:55:19.362Z,97995.50
2022-09-28T01:58:36.474Z,97995.20
2022-09-28T02:01:36.447Z,97987.67
2022-09-28T02:04:46.836Z,97983.05
2022-09-28T02:08:02.233Z,97982.13
2022-09-28T02:10:58.501Z,97987.55
2022-09-28T02:13:58.552Z,97990.86
2022-09-28T02:16:54.414Z,97993.12
2022-09-28T02:19:47.629Z,97991.92
2022-09-28T02:22:48.039Z,97994.75
2022-09-28T02:25:58.563Z,97994.08
2022-09-28T02:28:47.193Z,97987.02
2022-09-28T02:31:35.981Z,97985.34
2022-09-28T02:34:24.840Z,97979.19
2022-09-28T02:37:13.477Z,97975.29
2022-09-28T02:40:02.277Z,97970.98
2022-09-28T02:43:24.693Z,97973.71
2022-09-28T02:46:28.708Z,97970.74
2022-09-28T02:49:42.085Z,97971.67
2022-09-28T02:53:33.457Z,97970.27
2022-09-28T02:56:30.179Z,97968.31
2022-09-28T02:59:53.722Z,97970.30
2022-09-28T03:03:04.126Z,97964.94
2022-09-28T03:06:00.493Z,97965.50
2022-09-28T03:09:18.858Z,97968.09
2022-09-28T03:12:14.821Z,97969.30
2022-09-28T03:15:10.804Z,97969.16
2022-09-28T03:17:59.660Z,97971.16
2022-09-28T03:20:47.684Z,97969.16
2022-09-28T03:23:35.803Z,97970.13
2022-09-28T03:26:23.396Z,97969.23
2022-09-28T03:29:11.381Z,97966.02
2022-09-28T03:31:59.638Z,97962.13
2022-09-28T03:34:47.514Z,97962.25
2022-09-28T03:37:36.195Z,97959.54
2022-09-28T03:40:24.683Z,97955.97
2022-09-28T03:43:13.469Z,97950.91
2022-09-28T03:46:02.842Z,97950.89
2022-09-28T03:48:52.589Z,97953.59
2022-09-28T03:51:40.238Z,97950.39
2022-09-28T03:54:29.826Z,97953.87
2022-09-28T03:57:17.931Z,97952.86
2022-09-28T04:00:06.809Z,97954.42
2022-09-28T04:03:01.401Z,97952.34
2022-09-28T04:05:53.848Z,97951.98
2022-09-28T04:08:43.678Z,97947.32
2022-09-28T04:11:43.045Z,97944.49
2022-09-28T04:14:40.417Z,97941.87
2022-09-28T04:17:28.397Z,97935.68
2022-09-28T04:20:17.254Z,97933.48
2022-09-28T04:23:20.583Z,97927.28
2022-09-28T04:26:21.202Z,97923.46
2022-09-28T04:29:19.407Z,97921.70
2022-09-28T04:32:15.065Z,97915.57
2022-09-28T04:35:02.985Z,97908.58
2022-09-28T04:37:50.969Z,97906.67
2022-09-28T04:40:38.977Z,97903.27
2022-09-28T04:43:27.127Z,97900.77
2022-09-28T04:46:15.515Z,97898.53
2022-09-28T04:49:11.477Z,97897.36
2022-09-28T04:52:12.542Z,97901.98
2022-09-28T04:55:06.178Z,97904.33
2022-09-28T04:57:54.780Z,97904.99
2022-09-28T05:00:42.820Z,97909.91
2022-09-28T05:03:46.428Z,97915.81
2022-09-28T05:07:06.971Z,97916.27
2022-09-28T05:09:56.126Z,97916.52
2022-09-28T05:12:44.160Z,97914.55
2022-09-28T05:15:36.184Z,97915.67
2022-09-28T05:18:24.930Z,97914.98
2022-09-28T05:21:25.284Z,97914.42
2022-09-28T05:24:13.334Z,97913.45
2022-09-28T05:27:01.289Z,97914.92
2022-09-28T05:29:50.640Z,97914.66
2022-09-28T05:32:59.437Z,97916.00
2022-09-28T05:36:11.266Z,97916.39
2022-09-28T05:38:59.566Z,97914.76
2022-09-28T05:41:47.317Z,97914.20
2022-09-28T05:44:35.356Z,97913.50
2022-09-28T05:47:23.204Z,97913.41
2022-09-28T05:50:12.153Z,97916.63
2022-09-28T05:53:06.152Z,97915.00
2022-09-28T05:55:59.522Z,97909.59
2022-09-28T05:58:47.549Z,97910.27
2022-09-28T06:01:38.428Z,97908.70
2022-09-28T06:04:29.407Z,97906.48
2022-09-28T06:07:18.574Z,97905.41
2022-09-28T06:10:06.959Z,97902.73
2022-09-28T06:13:02.533Z,97908.50
2022-09-28T06:15:50.579Z,97905.24
2022-09-28T06:18:38.543Z,97905.39
2022-09-28T06:21:42.782Z,97905.23
2022-09-28T06:24:30.731Z,97907.30
2022-09-28T06:27:18.720Z,97908.83
2022-09-28T06:30:07.452Z,97903.30
2022-09-28T06:32:57.823Z,97901.94
2022-09-28T06:35:47.391Z,97902.15
2022-09-28T06:38:35.395Z,97894.41
2022-09-28T06:41:24.478Z,97894.14
2022-09-28T06:44:12.757Z,97894.13
2022-09-28T06:47:22.240Z,97896.06
2022-09-28T06:50:41.632Z,97892.34
2022-09-28T06:53:48.558Z,97888.98
2022-09-28T06:56:53.610Z,97888.08
2022-09-28T06:59:41.905Z,97890.50
2022-09-28T07:02:31.485Z,97895.54
2022-09-28T07:05:29.776Z,97901.31
2022-09-28T07:08:38.914Z,97896.09
2022-09-28T07:11:48.126Z,97902.90
2022-09-28T07:14:48.054Z,97903.14
2022-09-28T07:17:50.116Z,97904.13
2022-09-28T07:20:53.742Z,97907.02
2022-09-28T07:23:52.966Z,97905.99
2022-09-28T07:26:45.591Z,97907.89
2022-09-28T07:29:54.109Z,97904.33
2022-09-28T07:32:56.138Z,97901.95
2022-09-28T07:36:07.459Z,97897.02
2022-09-28T07:38:55.604Z,97895.14
2022-09-28T07:41:44.496Z,97898.73
2022-09-28T07:44:33.850Z,97899.15
2022-09-28T07:47:30.843Z,97900.05
2022-09-28T07:50:39.114Z,97903.65
2022-09-28T07:53:48.343Z,97907.16
2022-09-28T07:56:55.030Z,97907.76
2022-09-28T08:00:07.283Z,97905.88
2022-09-28T08:03:05.220Z,97905.94
2022-09-28T08:06:02.472Z,97905.08
2022-09-28T08:08:50.514Z,97907.84
2022-09-28T08:11:44.079Z,97907.53
2022-09-28T08:15:00.374Z,97910.36
2022-09-28T08:18:14.405Z,97907.33
2022-09-28T08:21:24.187Z,97908.66
2022-09-28T08:24:15.564Z,97909.31
2022-09-28T08:27:04.108Z,97906.45
2022-09-28T08:29:54.190Z,97905.88
2022-09-28T08:33:18.119Z,97910.08
2022-09-28T08:36:24.701Z,97908.66
2022-09-28T08:39:31.299Z,97912.02
2022-09-28T08:43:15.085Z,97908.91
2022-09-28T08:46:45.328Z,97910.09
2022-09-28T08:49:52.127Z,97906.77
2022-09-28T08:53:20.934Z,97907.48
2022-09-28T08:56:50.549Z,97913.40
2022-09-28T08:59:56.043Z,97922.71
2022-09-28T09:02:49.719Z,97923.48
2022-09-28T09:06:18.635Z,97921.77
2022-09-28T09:09:42.002Z,97920.03
2022-09-28T09:13:19.254Z,97919.59
2022-09-28T09:16:35.695Z,97919.00
2022-09-28T09:20:08.647Z,97921.77
2022-09-28T09:23:31.629Z,97922.89
2022-09-28T09:26:29.259Z,97927.30
2022-09-28T09:29:32.343Z,97927.85
2022-09-28T09:32:33.341Z,97929.20
2022-09-28T09:35:52.504Z,97929.20
2022-09-28T09:39:08.688Z,97931.64
2022-09-28T09:42:43.484Z,97934.23
2022-09-28T09:46:30.135Z,97935.67
2022-09-28T09:49:55.818Z,97931.08
2022-09-28T09:53:00.170Z,97933.12
2022-09-28T09:55:57.508Z,97934.94
2022-09-28T09:59:06.868Z,97933.33
2022-09-28T10:02:29.028Z,97934.66
2022-09-28T10:05:46.949Z,97940.73
2022-09-28T10:08:40.972Z,97940.41
2022-09-28T10:11:36.773Z,97934.75
2022-09-28T10:14:26.966Z,97930.86
2022-09-28T10:17:27.884Z,97934.45
2022-09-28T10:20:40.082Z,97936.02
2022-09-28T10:23:45.080Z,97929.59
2022-09-28T10:26:42.051Z,97924.94
2022-09-28T10:29:46.038Z,97928.21
2022-09-28T10:32:55.911Z,97928.25
2022-09-28T10:35:47.971Z,97929.90
2022-09-28T10:38:36.162Z,97933.09
2022-09-28T10:41:50.133Z,97930.52
2022-09-28T10:44:55.689Z,97930.88
2022-09-28T10:47:55.939Z,97930.79
2022-09-28T10:50:57.167Z,97930.67
2022-09-28T10:54:05.704Z,97930.98
2022-09-28T10:57:29.210Z,97934.88
2022-09-28T11:00:43.311Z,97932.61
2022-09-28T11:04:04.260Z,97935.02
2022-09-28T11:06:52.822Z,97936.91
2022-09-28T11:09:48.496Z,97945.77
2022-09-28T11:12:44.151Z,97939.55
2022-09-28T11:15:34.082Z,97936.84
2022-09-28T11:18:31.908Z,97939.79
2022-09-28T11:21:32.297Z,97934.58
2022-09-28T11:24:27.183Z,97942.29
2022-09-28T11:27:26.854Z,97941.70
2022-09-28T11:30:42.476Z,97944.11
2022-09-28T11:34:03.381Z,97942.70
2022-09-28T11:37:23.556Z,97943.77
2022-09-28T11:40:33.903Z,97944.68
2022-09-28T11:43:39.834Z,97947.31
2022-09-28T11:46:49.409Z,97943.85
2022-09-28T11:49:52.572Z,97945.85
2022-09-28T11:52:54.540Z,97938.39
2022-09-28T11:55:54.495Z,97936.95
2022-09-28T11:58:51.215Z,97938.34
2022-09-28T12:02:19.643Z,97935.40
2022-09-28T12:05:25.604Z,97937.05
2022-09-28T12:08:28.987Z,97936.73
2022-09-28T12:11:36.232Z,97936.27
2022-09-28T12:14:40.081Z,97935.98
2022-09-28T12:17:56.313Z,97934.25
2022-09-28T12:20:51.860Z,97931.95
2022-09-28T12:23:43.620Z,97932.91
2022-09-28T12:26:57.584Z,97935.33
2022-09-28T12:30:05.721Z,97936.62
2022-09-28T12:33:12.493Z,97941.98
2022-09-28T12:37:11.123Z,97944.86
2022-09-28T12:40:22.921Z,97946.03
2022-09-28T12:43:11.369Z,97942.95
2022-09-28T12:46:30.039Z,97940.94
2022-09-28T12:54:13.936Z,97929.78
2022-09-28T12:57:43.996Z,97930.53
2022-09-28T13:00:59.164Z,97927.99
2022-09-28T13:04:21.995Z,97926.30
2022-09-28T13:07:34.754Z,97935.27
2022-09-28T13:10:32.895Z,97930.80
2022-09-28T13:13:48.571Z,97933.56
2022-09-28T13:16:46.127Z,97935.88
2022-09-28T13:19:59.946Z,97938.96
2022-09-28T13:22:53.100Z,97940.27
2022-09-28T13:26:23.329Z,97944.80
2022-09-28T13:29:18.852Z,97942.46
2022-09-28T13:32:09.724Z,97948.20
2022-09-28T13:34:59.036Z,97947.33
2022-09-28T13:38:21.072Z,97946.65
2022-09-28T13:41:12.425Z,97955.70
2022-09-28T13:44:16.798Z,97960.13
2022-09-28T13:47:16.876Z,97957.98
2022-09-28T13:50:34.815Z,97959.45
2022-09-28T13:53:47.688Z,97958.09
2022-09-28T13:57:13.547Z,97956.05
2022-09-28T14:00:13.791Z,97963.52
2022-09-28T14:03:43.993Z,97966.01
2022-09-28T14:06:33.522Z,97969.50
2022-09-28T14:09:58.361Z,97967.00
2022-09-28T14:12:54.527Z,97973.05
2022-09-28T14:15:45.493Z,97969.05
2022-09-28T14:18:37.415Z,97971.73
2022-09-28T14:21:46.671Z,97975.69
2022-09-28T14:25:17.667Z,97975.08
2022-09-28T14:28:49.323Z,97977.99
2022-09-28T14:31:43.867Z,97982.06
2022-09-28T14:35:18.610Z,97989.81
2022-09-28T14:38:54.169Z,97987.79
2022-09-28T14:41:44.639Z,97989.60
2022-09-28T14:45:06.603Z,97991.83
2022-09-28T14:48:21.638Z,97994.47
2022-09-28T14:51:25.081Z,97997.14
2022-09-28T14:54:30.797Z,97998.14
2022-09-28T14:57:24.444Z,97996.20
2022-09-28T15:00:22.388Z,97995.67
2022-09-28T15:03:13.067Z,97999.85
2022-09-28T15:06:08.452Z,98001.31
2022-09-28T15:08:56.555Z,98007.33
2022-09-28T15:11:44.927Z,98003.67
2022-09-28T15:14:40.449Z,98010.95
2022-09-28T15:17:43.321Z,98010.02
2022-09-28T15:20:40.435Z,98015.36
2022-09-28T15:23:37.024Z,98018.52
2022-09-28T15:26:31.192Z,98018.55
2022-09-28T15:29:49.331Z,98020.86
2022-09-28T15:32:37.250Z,98020.86
2022-09-28T15:35:27.891Z,98019.13
2022-09-28T15:38:19.604Z,98019.73
2022-09-28T15:41:10.375Z,98021.49
2022-09-28T15:44:38.308Z,98019.22
2022-09-28T15:47:32.033Z,98020.91
2022-09-28T15:50:30.131Z,98021.89
2022-09-28T15:53:19.060Z,98023.29
2022-09-28T15:56:10.393Z,98024.52
2022-09-28T16:00:07.405Z,98019.39
2022-09-28T16:03:13.918Z,98028.58
2022-09-28T16:06:10.784Z,98030.94
2022-09-28T16:08:58.908Z,98032.84
2022-09-28T16:11:47.255Z,98035.98
2022-09-28T16:14:35.232Z,98037.55
2022-09-28T16:17:35.222Z,98037.48
2022-09-28T16:20:39.870Z,98038.13
2022-09-28T16:23:34.454Z,98039.52
2022-09-28T16:26:36.268Z,98042.44
2022-09-28T16:30:08.871Z,98040.30
2022-09-28T16:33:05.317Z,98042.70
2022-09-28T16:35:53.592Z,98045.65
2022-09-28T16:38:45.529Z,98055.77
2022-09-28T16:41:33.555Z,98057.92
2022-09-28T16:44:31.953Z,98053.48
2022-09-28T16:47:20.276Z,98051.45
2022-09-28T16:50:12.656Z,98055.50
2022-09-28T16:53:39.409Z,98054.47
2022-09-28T16:56:34.999Z,98058.21
2022-09-28T16:59:26.255Z,98061.39
2022-09-28T17:02:46.278Z,98060.66
2022-09-28T17:05:32.562Z,98058.95
2022-09-28T17:08:25.240Z,98057.65
2022-09-28T17:11:23.405Z,98057.09
2022-09-28T17:14:12.665Z,98056.77
2022-09-28T17:17:09.030Z,98060.96
2022-09-28T17:19:58.858Z,98059.91
2022-09-28T17:22:47.453Z,98057.20
2022-09-28T17:25:36.788Z,98059.17
2022-09-28T17:28:34.261Z,98059.67
2022-09-28T17:31:22.403Z,98060.34
2022-09-28T17:34:12.463Z,98059.81
2022-09-28T17:37:00.414Z,98060.42
2022-09-28T17:39:49.435Z,98064.48
2022-09-28T17:42:37.295Z,98071.38
2022-09-28T17:45:28.803Z,98075.45
2022-09-28T17:48:24.409Z,98072.19
2022-09-28T17:51:15.369Z,98069.89
2022-09-28T17:54:08.231Z,98071.60
2022-09-28T17:56:59.355Z,98071.67
2022-09-28T18:00:06.007Z,98071.06
2022-09-28T18:02:58.474Z,98069.20
2022-09-28T18:05:58.662Z,98066.19
2022-09-28T18:08:47.814Z,98062.96
2022-09-28T18:11:44.276Z,98063.14
2022-09-28T18:14:32.188Z,98062.52
2022-09-28T18:17:20.128Z,98062.80
2022-09-28T18:20:12.421Z,98063.70
2022-09-28T18:23:02.659Z,98064.48
2022-09-28T18:25:50.722Z,98065.34
2022-09-28T18:28:39.114Z,98065.35
2022-09-28T18:31:28.061Z,98063.48
2022-09-28T18:34:16.482Z,98068.08
2022-09-28T18:37:06.651Z,98066.92
2022-09-28T18:39:54.467Z,98070.89
2022-09-28T18:42:43.057Z,98078.94
2022-09-28T18:45:33.283Z,98078.31
2022-09-28T18:48:25.118Z,98077.91
2022-09-28T18:51:15.116Z,98079.61
2022-09-28T18:54:07.807Z,98078.10
2022-09-28T18:56:58.961Z,98083.81
2022-09-28T18:59:48.500Z,98081.71
2022-09-28T19:02:37.344Z,98080.20
2022-09-28T19:05:28.993Z,98080.85
2022-09-28T19:08:16.888Z,98081.28
2022-09-28T19:11:14.230Z,98083.10
2022-09-28T19:14:03.854Z,98084.53
2022-09-28T19:16:54.316Z,98087.36
2022-09-28T19:19:45.233Z,98090.61
2022-09-28T19:22:33.473Z,98093.49
2022-09-28T19:25:21.291Z,98092.45
2022-09-28T19:28:09.556Z,98092.52
2022-09-28T19:33:53.990Z,98100.40
2022-09-28T19:36:42.790Z,98097.41
2022-09-28T19:39:31.267Z,98093.86
2022-09-28T19:42:19.526Z,98096.23
2022-09-28T19:45:08.944Z,98097.11
2022-09-28T19:47:59.545Z,98098.45
2022-09-28T19:51:08.356Z,98094.20
2022-09-28T19:53:57.482Z,98097.05
2022-09-28T19:56:50.460Z,98097.48
2022-09-28T20:02:42.931Z,98104.61
2022-09-28T20:05:32.637Z,98103.41
2022-09-28T20:17:57.942Z,98102.88
2022-09-28T20:21:05.900Z,98104.95
2022-09-28T20:23:57.932Z,98109.89
2022-09-28T20:26:49.762Z,98112.11
2022-09-28T20:29:39.861Z,98110.96
2022-09-28T20:32:32.850Z,98107.05
2022-09-28T20:35:32.992Z,98112.40
2022-09-28T20:38:21.533Z,98114.52
2022-09-28T20:41:12.336Z,98116.80
2022-09-28T20:44:05.009Z,98115.42
2022-09-28T20:46:53.669Z,98113.95
2022-09-28T20:49:41.893Z,98118.15
2022-09-28T20:52:32.402Z,98117.52
2022-09-28T20:55:20.807Z,98117.38
2022-09-28T20:58:09.145Z,98118.38
2022-09-28T21:01:22.835Z,98117.64
2022-09-28T21:04:13.510Z,98117.67
2022-09-28T21:07:02.209Z,98122.59
2022-09-28T21:09:50.681Z,98117.76
2022-09-28T21:12:39.223Z,98119.00
2022-09-28T21:15:27.760Z,98117.66
2022-09-28T21:18:19.292Z,98119.30
2022-09-28T21:21:13.129Z,98124.52
2022-09-28T21:24:02.560Z,98121.45
2022-09-28T21:26:51.097Z,98118.95
2022-09-28T21:29:42.516Z,98123.48
2022-09-28T21:32:31.166Z,98125.89
2022-09-28T21:35:19.968Z,98129.33
2022-09-28T21:38:08.401Z,98127.69
2022-09-28T21:41:00.516Z,98129.33
2022-09-28T21:43:48.732Z,98132.77
2022-09-28T21:46:38.718Z,98131.65
2022-09-28T21:49:26.559Z,98137.17
2022-09-28T21:52:14.749Z,98137.41
2022-09-28T21:55:03.704Z,98136.39
2022-09-28T21:57:51.896Z,98134.29
2022-09-28T22:00:40.064Z,98137.58
2022-09-28T22:03:30.789Z,98137.83
2022-09-28T22:06:21.763Z,98136.73
2022-09-28T22:09:10.324Z,98137.60
2022-09-28T22:11:59.106Z,98136.57
2022-09-28T22:14:47.304Z,98142.52
2022-09-28T22:17:38.582Z,98140.21
2022-09-28T22:20:29.079Z,98141.83
2022-09-28T22:23:17.153Z,98135.95
2022-09-28T22:26:09.885Z,98136.83
2022-09-28T22:29:05.357Z,98139.98
2022-09-28T22:32:00.263Z,98139.45
2022-09-28T22:34:48.320Z,98142.91
2022-09-28T22:37:36.243Z,98147.46
2022-09-28T22:40:27.334Z,98148.72
2022-09-28T22:43:16.096Z,98144.19
2022-09-28T22:46:16.879Z,98145.55
2022-09-28T22:49:04.702Z,98148.38
2022-09-28T22:51:52.791Z,98144.67
2022-09-28T22:54:40.918Z,98147.66
2022-09-28T22:57:29.595Z,98146.91
2022-09-28T23:00:17.751Z,98148.71
2022-09-28T23:03:06.044Z,98154.25
2022-09-28T23:05:56.707Z,98148.27
2022-09-28T23:08:46.195Z,98151.84
2022-09-28T23:11:34.482Z,98152.15
2022-09-28T23:14:22.952Z,98152.38
2022-09-28T23:17:10.654Z,98154.75
2022-09-28T23:19:58.649Z,98154.77
2022-09-28T23:22:50.837Z,98155.41
2022-09-28T23:25:38.444Z,98159.92
2022-09-28T23:28:27.471Z,98164.55
2022-09-28T23:31:23.216Z,98171.23
2022-09-28T23:34:11.355Z,98172.67
2022-09-28T23:36:59.617Z,98170.11
2022-09-28T23:39:47.928Z,98171.81
2022-09-28T23:42:36.355Z,98166.68
2022-09-28T23:45:25.367Z,98164.86
2022-09-28T23:48:15.237Z,98166.81
2022-09-28T23:51:04.306Z,98167.29
2022-09-28T23:53:52.657Z,98170.52
2022-09-28T23:56:41.122Z,98168.31
2022-09-28T23:59:29.816Z,98167.21
